Chignik, Alaska
Current Conditions -  °F | °C
As of 12:54 AM on Thursday 27 Nov 2014 (Local Time) from PAKN Reporting Station
Overcast Overcast  
Wind Chill: 30°   Ceiling: 2800
Heat Index: 35°   Visibility: 10mi
Dew Point: 30°   Wind: 6mph
Humidity: 82%   Direction: 100°E
Pressure: 30.21"   Gusts: NA
Location:  58.11°N, 156°W
Report Text: PAKN 270954Z 10005KT 10SM OVC028 02/M01 A3021 RMK AO2 SLP230 T00171011
Loading
Personal Weather Stations






























Interactive Weather Map New forecast layout! Learn more

10-Day Weather Forecast

Advertisements
Track Severe Weather on mobile